createdAt,value
2018-12-05T00:01:02.322Z,-1.70
2018-12-05T00:03:30.511Z,-1.60
2018-12-05T00:05:58.742Z,-1.70
2018-12-05T00:08:26.951Z,-2.00
2018-12-05T00:10:55.123Z,-1.50
2018-12-05T00:13:23.306Z,-1.60
2018-12-05T00:15:51.508Z,-2.00
2018-12-05T00:18:19.770Z,-1.90
2018-12-05T00:20:47.886Z,-2.00
2018-12-05T00:23:16.027Z,-1.90
2018-12-05T00:25:44.230Z,-1.80
2018-12-05T00:28:12.350Z,-1.70
2018-12-05T00:30:40.614Z,-1.90
2018-12-05T00:33:08.889Z,-1.50
2018-12-05T00:35:37.154Z,-2.00
2018-12-05T00:38:05.356Z,-1.90
2018-12-05T00:40:33.558Z,-2.00
2018-12-05T00:43:01.706Z,-1.90
2018-12-05T00:45:29.899Z,-1.80
2018-12-05T00:47:58.035Z,-1.90
2018-12-05T00:50:26.174Z,-1.90
2018-12-05T00:52:54.359Z,-2.00
2018-12-05T00:55:22.567Z,-2.00
2018-12-05T00:57:50.695Z,-1.80
2018-12-05T01:00:19.108Z,-2.20
2018-12-05T01:02:47.413Z,-2.20
2018-12-05T01:05:15.655Z,-2.10
2018-12-05T01:07:43.931Z,-2.10
2018-12-05T01:10:12.298Z,-2.00
2018-12-05T01:12:40.411Z,-2.40
2018-12-05T01:15:08.683Z,-2.30
2018-12-05T01:17:36.906Z,-2.50
2018-12-05T01:20:05.567Z,-2.40
2018-12-05T01:22:33.750Z,-2.80
2018-12-05T01:25:01.939Z,-2.50
2018-12-05T01:27:30.051Z,-2.60
2018-12-05T01:29:58.166Z,-2.50
2018-12-05T01:32:26.286Z,-2.80
2018-12-05T01:34:54.433Z,-2.70
2018-12-05T01:37:22.626Z,-2.90
2018-12-05T01:39:50.820Z,-3.00
2018-12-05T01:42:19.122Z,-2.90
2018-12-05T01:44:47.315Z,-3.00
2018-12-05T01:47:15.419Z,-2.70
2018-12-05T01:49:43.534Z,-2.80
2018-12-05T01:52:11.778Z,-2.90
2018-12-05T01:54:39.979Z,-2.90
2018-12-05T01:57:08.083Z,-2.90
2018-12-05T01:59:36.263Z,-2.90
2018-12-05T02:02:04.514Z,-2.90
2018-12-05T02:04:32.640Z,-2.80
2018-12-05T02:07:00.854Z,-2.80
2018-12-05T02:09:29.062Z,-2.80
2018-12-05T02:11:57.186Z,-2.80
2018-12-05T02:14:25.462Z,-2.80
2018-12-05T02:16:53.649Z,-2.80
2018-12-05T02:19:21.967Z,-2.90
2018-12-05T02:21:50.071Z,-2.80
2018-12-05T02:24:18.171Z,-2.70
2018-12-05T02:26:46.406Z,-2.90
2018-12-05T02:29:14.573Z,-2.80
2018-12-05T02:31:42.753Z,-2.80
2018-12-05T02:34:10.914Z,-2.90
2018-12-05T02:36:39.168Z,-2.70
2018-12-05T02:39:08.811Z,-3.10
2018-12-05T02:41:36.978Z,-3.00
2018-12-05T02:44:05.214Z,-3.10
2018-12-05T02:46:33.311Z,-3.20
2018-12-05T02:49:02.014Z,-3.10
2018-12-05T02:51:30.255Z,-3.20
2018-12-05T02:53:59.438Z,-3.20
2018-12-05T02:56:27.542Z,-3.10
2018-12-05T02:58:55.639Z,-3.10
2018-12-05T03:01:23.874Z,-3.10
2018-12-05T03:03:52.106Z,-2.90
2018-12-05T03:06:20.286Z,-3.30
2018-12-05T03:08:48.393Z,-3.10
2018-12-05T03:11:16.493Z,-3.20
2018-12-05T03:13:44.658Z,-3.20
2018-12-05T03:16:12.830Z,-3.20
2018-12-05T03:18:40.924Z,-3.20
2018-12-05T03:21:09.161Z,-3.20
2018-12-05T03:23:37.254Z,-3.30
2018-12-05T03:26:05.506Z,-3.00
2018-12-05T03:28:33.607Z,-3.10
2018-12-05T03:31:01.715Z,-3.30
2018-12-05T03:33:29.822Z,-3.00
2018-12-05T03:35:58.022Z,-3.10
2018-12-05T03:38:26.135Z,-3.20
2018-12-05T03:40:54.354Z,-3.20
2018-12-05T03:43:22.524Z,-3.20
2018-12-05T03:45:50.619Z,-3.20
2018-12-05T03:48:18.791Z,-3.20
2018-12-05T03:50:46.942Z,-3.30
2018-12-05T03:53:15.119Z,-3.40
2018-12-05T03:55:43.224Z,-3.50
2018-12-05T03:58:11.398Z,-3.50
2018-12-05T04:00:39.486Z,-3.70
2018-12-05T04:03:07.651Z,-3.70
2018-12-05T04:05:35.808Z,-3.40
2018-12-05T04:08:04.243Z,-3.40
2018-12-05T04:10:32.410Z,-3.40
2018-12-05T04:13:00.531Z,-3.40
2018-12-05T04:15:28.706Z,-3.50
2018-12-05T04:17:56.861Z,-3.50
2018-12-05T04:20:25.030Z,-3.40
2018-12-05T04:22:53.210Z,-3.50
2018-12-05T04:25:21.374Z,-3.50
2018-12-05T04:27:49.744Z,-3.40
2018-12-05T04:30:17.970Z,-3.40
2018-12-05T04:32:46.145Z,-3.60
2018-12-05T04:35:14.247Z,-3.50
2018-12-05T04:37:42.434Z,-3.50
2018-12-05T04:40:10.522Z,-3.80
2018-12-05T04:42:38.690Z,-3.40
2018-12-05T04:45:06.929Z,-3.60
2018-12-05T04:47:35.179Z,-3.50
2018-12-05T04:50:03.623Z,-3.70
2018-12-05T04:52:31.874Z,-3.60
2018-12-05T04:54:59.985Z,-3.70
2018-12-05T04:57:28.088Z,-3.70
2018-12-05T04:59:56.239Z,-3.70
2018-12-05T05:02:24.821Z,-3.40
2018-12-05T05:04:53.017Z,-3.50
2018-12-05T05:07:21.190Z,-3.70
2018-12-05T05:09:49.308Z,-3.80
2018-12-05T05:12:17.498Z,-3.70
2018-12-05T05:14:45.667Z,-3.90
2018-12-05T05:17:13.786Z,-3.90
2018-12-05T05:19:42.010Z,-3.70
2018-12-05T05:22:10.118Z,-3.80
2018-12-05T05:24:38.454Z,-3.90
2018-12-05T05:27:06.622Z,-3.70
2018-12-05T05:29:34.803Z,-3.70
2018-12-05T05:32:03.045Z,-4.00
2018-12-05T05:34:31.306Z,-3.70
2018-12-05T05:36:59.475Z,-3.60
2018-12-05T05:39:27.578Z,-3.70
2018-12-05T05:41:55.695Z,-4.00
2018-12-05T05:44:24.057Z,-4.00
2018-12-05T05:46:52.350Z,-4.20
2018-12-05T05:49:20.594Z,-4.10
2018-12-05T05:51:48.774Z,-3.90
2018-12-05T05:54:16.878Z,-3.90
2018-12-05T05:56:45.477Z,-3.80
2018-12-05T05:59:13.766Z,-3.70
2018-12-05T06:01:41.866Z,-3.80
2018-12-05T06:04:09.974Z,-4.10
2018-12-05T06:06:38.147Z,-4.00
2018-12-05T06:09:07.922Z,-3.80
2018-12-05T06:11:36.026Z,-4.10
2018-12-05T06:14:04.266Z,-3.90
2018-12-05T06:16:32.387Z,-3.70
2018-12-05T06:19:00.517Z,-3.90
2018-12-05T06:21:28.677Z,-3.90
2018-12-05T06:23:56.886Z,-3.90
2018-12-05T06:26:24.986Z,-3.80
2018-12-05T06:28:54.158Z,-3.90
2018-12-05T06:31:22.258Z,-3.50
2018-12-05T06:33:50.384Z,-3.40
2018-12-05T06:36:18.660Z,-3.60
2018-12-05T06:38:46.782Z,-3.50
2018-12-05T06:41:14.955Z,-3.70
2018-12-05T06:43:43.234Z,-3.70
2018-12-05T06:46:11.346Z,-3.50
2018-12-05T06:48:39.455Z,-3.50
2018-12-05T06:51:07.568Z,-3.40
2018-12-05T06:53:35.754Z,-3.60
2018-12-05T06:56:03.930Z,-3.60
2018-12-05T06:58:32.159Z,-3.60
2018-12-05T07:01:00.286Z,-3.30
2018-12-05T07:03:28.479Z,-3.20
2018-12-05T07:05:56.734Z,-3.60
2018-12-05T07:08:24.966Z,-3.40
2018-12-05T07:10:53.159Z,-3.60
2018-12-05T07:13:21.263Z,-3.70
2018-12-05T07:15:49.439Z,-3.40
2018-12-05T07:18:17.585Z,-3.50
2018-12-05T07:20:45.814Z,-3.50
2018-12-05T07:23:13.942Z,-3.50
2018-12-05T07:25:42.075Z,-3.40
2018-12-05T07:28:10.234Z,-3.50
2018-12-05T07:30:38.522Z,-3.30
2018-12-05T07:33:06.739Z,-3.30
2018-12-05T07:35:34.963Z,-3.20
2018-12-05T07:38:03.190Z,-3.20
2018-12-05T07:40:31.332Z,-3.60
2018-12-05T07:42:59.462Z,-3.20
2018-12-05T07:45:27.598Z,-3.20
2018-12-05T07:47:55.734Z,-3.10
2018-12-05T07:50:23.882Z,-3.30
2018-12-05T07:52:52.014Z,-3.30
2018-12-05T07:55:20.166Z,-3.20
2018-12-05T07:57:48.295Z,-3.10
2018-12-05T08:00:16.426Z,-2.90
2018-12-05T08:02:44.570Z,-2.90
2018-12-05T08:05:12.721Z,-2.70
2018-12-05T08:07:40.897Z,-2.80
2018-12-05T08:10:09.199Z,-2.80
2018-12-05T08:12:37.406Z,-2.80
2018-12-05T08:15:06.551Z,-2.60
2018-12-05T08:17:34.665Z,-2.60
2018-12-05T08:20:02.902Z,-2.40
2018-12-05T08:22:31.066Z,-1.90
2018-12-05T08:24:59.261Z,-2.00
2018-12-05T08:27:27.418Z,-1.70
2018-12-05T08:29:55.674Z,-1.20
2018-12-05T08:32:23.785Z,-1.30
2018-12-05T08:34:53.477Z,-1.00
2018-12-05T08:37:25.566Z,-1.20
2018-12-05T08:39:53.767Z,-1.00
2018-12-05T08:42:22.034Z,-0.50
2018-12-05T08:44:50.206Z,-0.30
2018-12-05T08:47:18.319Z,-0.20
2018-12-05T08:49:46.443Z,0.00
2018-12-05T08:52:14.699Z,0.10
2018-12-05T08:54:42.814Z,0.40
2018-12-05T08:57:12.426Z,0.30
2018-12-05T08:59:40.849Z,0.60
2018-12-05T09:02:09.101Z,0.70
2018-12-05T09:04:37.294Z,1.10
2018-12-05T09:07:05.487Z,1.20
2018-12-05T09:09:52.542Z,1.30
2018-12-05T09:12:20.782Z,1.40
2018-12-05T09:14:48.964Z,1.50
2018-12-05T09:20:16.587Z,1.80
2018-12-05T09:22:44.783Z,2.10
2018-12-05T09:25:12.945Z,2.00
2018-12-05T09:27:41.051Z,1.90
2018-12-05T09:30:09.434Z,2.00
2018-12-05T09:32:37.618Z,1.90
2018-12-05T09:35:05.961Z,2.10
2018-12-05T09:37:34.079Z,2.10
2018-12-05T09:40:02.303Z,2.40
2018-12-05T09:42:30.428Z,2.20
2018-12-05T09:44:58.573Z,2.40
2018-12-05T09:47:26.722Z,2.40
2018-12-05T09:49:54.991Z,2.80
2018-12-05T09:52:23.094Z,2.50
2018-12-05T09:54:51.199Z,2.70
2018-12-05T09:57:19.879Z,3.00
2018-12-05T09:59:48.062Z,2.70
2018-12-05T10:02:16.246Z,2.90
2018-12-05T10:04:44.460Z,2.70
2018-12-05T10:07:12.640Z,2.70
2018-12-05T10:09:40.846Z,3.00
2018-12-05T10:12:09.007Z,3.00
2018-12-05T10:14:45.075Z,2.80
2018-12-05T10:23:01.105Z,3.10
2018-12-05T10:25:30.351Z,3.10
2018-12-05T10:28:22.550Z,3.20
2018-12-05T10:31:03.335Z,3.20
2018-12-05T10:33:33.384Z,3.30
2018-12-05T10:36:05.487Z,3.20
2018-12-05T10:38:39.162Z,3.30
2018-12-05T10:41:10.856Z,3.50
2018-12-05T10:43:44.638Z,3.70
2018-12-05T10:46:16.457Z,3.40
2018-12-05T10:48:50.760Z,3.70
2018-12-05T10:51:20.554Z,3.60
2018-12-05T10:53:52.067Z,4.00
2018-12-05T10:56:25.735Z,3.90
2018-12-05T10:58:57.374Z,3.90
2018-12-05T11:01:40.442Z,4.00
2018-12-05T11:05:22.390Z,4.00
2018-12-05T11:08:02.115Z,4.00
2018-12-05T11:10:38.558Z,3.60
2018-12-05T11:13:13.935Z,3.60
2018-12-05T11:15:47.627Z,3.50
2018-12-05T11:18:28.367Z,3.70
2018-12-05T11:21:07.411Z,3.40
2018-12-05T11:23:47.607Z,4.00
2018-12-05T11:26:27.172Z,3.90
2018-12-05T11:29:07.587Z,3.90
2018-12-05T11:34:48.414Z,3.60
2018-12-05T11:40:18.983Z,3.40
2018-12-05T11:46:00.819Z,3.40
2018-12-05T11:48:35.207Z,3.30
2018-12-05T11:51:06.860Z,3.70
2018-12-05T11:53:52.231Z,3.40
2018-12-05T11:56:32.778Z,3.40
2018-12-05T11:59:17.664Z,3.50
2018-12-05T12:01:49.673Z,3.70
2018-12-05T12:04:20.923Z,3.60
2018-12-05T12:07:01.165Z,3.50
2018-12-05T12:09:35.538Z,3.40
2018-12-05T12:12:21.247Z,3.90
2018-12-05T12:14:54.843Z,4.00
2018-12-05T12:26:07.581Z,3.50
2018-12-05T12:28:35.813Z,3.40
2018-12-05T12:34:03.642Z,3.00
2018-12-05T12:36:31.907Z,3.00
2018-12-05T12:39:00.108Z,3.30
2018-12-05T12:41:28.271Z,3.00
2018-12-05T12:43:56.375Z,3.30
2018-12-05T12:46:41.311Z,3.40
2018-12-05T12:49:13.024Z,3.30
2018-12-05T12:54:45.590Z,3.30
2018-12-05T12:57:13.758Z,2.90
2018-12-05T12:59:41.863Z,3.30
2018-12-05T13:02:30.251Z,3.10
2018-12-05T13:04:58.364Z,3.00
2018-12-05T13:07:26.482Z,3.00
2018-12-05T13:09:54.627Z,3.10
2018-12-05T13:12:31.840Z,3.10
2018-12-05T13:15:00.107Z,3.40
2018-12-05T13:17:28.355Z,3.30
2018-12-05T13:19:56.519Z,3.30
2018-12-05T13:22:24.662Z,3.30
2018-12-05T13:24:52.910Z,3.70
2018-12-05T13:30:20.379Z,3.50
2018-12-05T13:32:48.530Z,3.40
2018-12-05T13:35:18.674Z,3.60
2018-12-05T13:37:46.916Z,3.20
2018-12-05T13:40:15.129Z,3.40
2018-12-05T13:45:43.327Z,3.00
2018-12-05T13:48:11.455Z,3.00
2018-12-05T13:50:39.694Z,2.90
2018-12-05T13:53:07.847Z,2.80
2018-12-05T13:55:36.000Z,2.80
2018-12-05T13:58:04.299Z,2.70
2018-12-05T14:00:42.778Z,2.60
2018-12-05T14:03:10.951Z,2.80
2018-12-05T14:05:39.127Z,2.80
2018-12-05T14:08:07.435Z,2.60
2018-12-05T14:10:35.586Z,2.40
2018-12-05T14:13:03.948Z,2.70
2018-12-05T14:15:32.128Z,2.40
2018-12-05T14:18:02.352Z,2.40
2018-12-05T14:20:30.451Z,2.50
2018-12-05T14:22:58.559Z,2.70
2018-12-05T14:25:26.751Z,2.60
2018-12-05T14:27:58.142Z,2.30
2018-12-05T14:30:30.067Z,2.10
2018-12-05T14:32:58.389Z,2.10
2018-12-05T14:35:26.669Z,2.30
2018-12-05T14:38:02.567Z,2.20
2018-12-05T14:40:37.174Z,2.10
2018-12-05T14:43:05.467Z,2.20
2018-12-05T14:45:33.594Z,2.40
2018-12-05T14:48:01.847Z,2.20
2018-12-05T14:50:42.182Z,2.30
2018-12-05T14:53:10.303Z,2.00
2018-12-05T14:55:38.407Z,2.40
2018-12-05T14:58:29.394Z,2.10
2018-12-05T15:01:00.710Z,2.00
2018-12-05T15:03:28.929Z,1.90
2018-12-05T15:05:57.162Z,1.90
2018-12-05T15:08:25.272Z,2.10
2018-12-05T15:10:53.427Z,1.90
2018-12-05T15:13:21.635Z,1.80
2018-12-05T15:15:49.735Z,1.90
2018-12-05T15:18:17.926Z,1.90
2018-12-05T15:20:46.127Z,2.10
2018-12-05T15:23:14.339Z,1.80
2018-12-05T15:25:43.682Z,1.80
2018-12-05T15:28:11.908Z,1.80
2018-12-05T15:30:40.201Z,1.80
2018-12-05T15:33:08.449Z,1.90
2018-12-05T15:35:36.586Z,2.10
2018-12-05T15:38:04.902Z,1.60
2018-12-05T15:40:33.119Z,1.80
2018-12-05T15:43:01.286Z,1.80
2018-12-05T15:45:29.422Z,1.90
2018-12-05T15:47:57.580Z,1.90
2018-12-05T15:50:25.776Z,2.00
2018-12-05T15:52:54.018Z,2.00
2018-12-05T15:55:22.172Z,1.80
2018-12-05T15:57:50.326Z,2.00
2018-12-05T16:00:18.546Z,2.40
2018-12-05T16:02:46.758Z,1.90
2018-12-05T16:05:14.970Z,2.40
2018-12-05T16:13:53.595Z,2.10
2018-12-05T16:19:21.158Z,2.10
2018-12-05T16:21:49.271Z,2.20
2018-12-05T16:24:17.367Z,2.10
2018-12-05T16:26:45.602Z,2.10
2018-12-05T16:29:19.358Z,2.10
2018-12-05T16:31:47.554Z,2.30
2018-12-05T16:34:21.671Z,2.40
2018-12-05T16:36:49.847Z,2.10
2018-12-05T16:39:18.127Z,2.30
2018-12-05T16:41:46.384Z,2.00
2018-12-05T16:44:14.691Z,2.00
2018-12-05T16:46:42.946Z,2.10
2018-12-05T16:52:09.646Z,1.90
2018-12-05T16:54:38.258Z,2.00
2018-12-05T16:57:06.458Z,2.00
2018-12-05T16:59:34.644Z,1.90
2018-12-05T17:02:06.279Z,2.10
2018-12-05T17:04:34.405Z,1.90
2018-12-05T17:07:02.553Z,2.00
2018-12-05T17:12:29.955Z,2.10
2018-12-05T17:15:14.567Z,2.20
2018-12-05T17:17:42.840Z,2.10
2018-12-05T17:20:11.096Z,2.20
2018-12-05T17:22:39.354Z,2.10
2018-12-05T17:25:07.626Z,2.10
2018-12-05T17:27:35.873Z,2.10
2018-12-05T17:30:04.454Z,2.10
2018-12-05T17:32:32.654Z,2.40
2018-12-05T17:35:00.786Z,2.10
2018-12-05T17:37:28.980Z,2.20
2018-12-05T17:39:57.264Z,2.40
2018-12-05T17:42:25.550Z,2.30
2018-12-05T17:44:53.767Z,2.20
2018-12-05T17:47:22.002Z,2.40
2018-12-05T17:49:50.205Z,2.20
2018-12-05T17:52:18.383Z,2.20
2018-12-05T17:54:46.547Z,2.60
2018-12-05T17:57:14.683Z,2.20
2018-12-05T18:12:40.168Z,2.30
2018-12-05T18:15:08.427Z,2.60
2018-12-05T18:17:36.661Z,2.40
2018-12-05T18:20:06.463Z,2.50
2018-12-05T18:22:34.751Z,2.50
2018-12-05T18:27:56.234Z,2.70
2018-12-05T18:30:24.554Z,2.70
2018-12-05T18:32:52.779Z,2.50
2018-12-05T18:35:20.932Z,2.90
2018-12-05T18:37:49.090Z,2.70
2018-12-05T18:40:17.279Z,2.80
2018-12-05T18:42:45.414Z,2.50
2018-12-05T18:45:13.827Z,3.00
2018-12-05T18:47:42.056Z,2.60
2018-12-05T18:50:10.363Z,3.00
2018-12-05T18:53:01.526Z,2.90
2018-12-05T18:55:29.667Z,2.90
2018-12-05T18:57:57.902Z,2.70
2018-12-05T19:00:26.198Z,3.00
2018-12-05T19:02:54.355Z,2.90
2018-12-05T19:05:22.591Z,2.70
2018-12-05T19:07:50.814Z,2.70
2018-12-05T19:10:18.978Z,3.20
2018-12-05T19:12:47.210Z,3.10
2018-12-05T19:15:15.430Z,3.30
2018-12-05T19:17:43.666Z,3.30
2018-12-05T19:20:11.860Z,3.00
2018-12-05T19:22:41.046Z,3.00
2018-12-05T19:25:09.230Z,3.20
2018-12-05T19:27:41.134Z,3.00
2018-12-05T19:30:09.419Z,3.00
2018-12-05T19:32:37.666Z,3.40
2018-12-05T19:35:05.921Z,3.20
2018-12-05T19:37:34.111Z,3.00
2018-12-05T19:40:02.358Z,3.30
2018-12-05T19:42:30.606Z,3.00
2018-12-05T19:44:58.772Z,3.40
2018-12-05T19:47:27.022Z,3.20
2018-12-05T19:49:55.210Z,3.10
2018-12-05T19:52:23.543Z,3.20
2018-12-05T19:54:51.662Z,3.20
2018-12-05T19:57:19.935Z,3.30
2018-12-05T19:59:48.068Z,3.10
2018-12-05T20:02:16.263Z,3.00
2018-12-05T20:04:44.995Z,3.30
2018-12-05T20:07:13.179Z,3.20
2018-12-05T20:09:41.355Z,3.20
2018-12-05T20:12:09.618Z,3.30
2018-12-05T20:14:38.719Z,3.30
2018-12-05T20:17:08.123Z,3.50
2018-12-05T20:19:36.318Z,3.30
2018-12-05T20:22:04.638Z,3.40
2018-12-05T20:27:31.763Z,3.40
2018-12-05T20:30:18.675Z,3.60
2018-12-05T20:32:46.850Z,3.40
2018-12-05T20:35:15.018Z,3.40
2018-12-05T20:37:43.211Z,3.50
2018-12-05T20:40:11.383Z,3.20
2018-12-05T20:42:45.009Z,3.60
2018-12-05T20:45:13.262Z,3.30
2018-12-05T20:47:41.454Z,3.70
2018-12-05T20:50:09.716Z,3.60
2018-12-05T20:52:37.906Z,3.30
2018-12-05T20:55:06.175Z,3.50
2018-12-05T20:57:34.285Z,3.30
2018-12-05T21:00:02.477Z,3.40
2018-12-05T21:02:30.602Z,3.30
2018-12-05T21:04:58.767Z,3.70
2018-12-05T21:07:26.900Z,3.50
2018-12-05T21:09:55.085Z,3.30
2018-12-05T21:12:23.267Z,3.40
2018-12-05T21:14:51.472Z,3.60
2018-12-05T21:17:19.628Z,3.20
2018-12-05T21:19:47.783Z,3.30
2018-12-05T21:22:15.911Z,3.40
2018-12-05T21:24:44.204Z,3.60
2018-12-05T21:27:12.367Z,3.00
2018-12-05T21:29:40.515Z,3.40
2018-12-05T21:32:08.730Z,3.30
2018-12-05T21:34:36.872Z,3.30
2018-12-05T21:37:05.692Z,3.50
2018-12-05T21:42:34.131Z,3.30
2018-12-05T21:48:02.269Z,3.50
2018-12-05T21:50:50.139Z,3.60
2018-12-05T21:53:27.994Z,3.20
2018-12-05T22:11:16.743Z,3.20
2018-12-05T22:14:04.534Z,2.90
2018-12-05T22:22:40.775Z,3.10
2018-12-05T22:28:17.081Z,3.00
2018-12-05T22:30:51.026Z,3.30
2018-12-05T22:33:28.694Z,2.80
2018-12-05T22:39:07.377Z,3.30
2018-12-05T22:48:39.343Z,3.10
2018-12-05T22:51:13.251Z,3.40
2018-12-05T22:53:48.264Z,3.10
2018-12-05T22:56:19.850Z,3.20
2018-12-05T22:58:56.207Z,3.40
2018-12-05T23:01:37.211Z,3.20
2018-12-05T23:04:12.425Z,3.30
2018-12-05T23:09:41.423Z,2.80
2018-12-05T23:12:20.781Z,2.90
2018-12-05T23:14:52.837Z,2.90
2018-12-05T23:17:24.852Z,3.10
2018-12-05T23:19:54.556Z,3.00
